Time;durP1;ratioP1;P1;durP2;ratioP2;P2;SDS_P1;SDS_P2;PMS_P1;PMS_P2;Temp;Humidity;BMP_temperature;BMP_pressure;BME280_temperature;BME280_humidity;BME280_pressure;Samples;Min_cycle;Max_cycle;Signal;HPM_P1;HPM_P2
2021/11/19 00:01:55;;;;;;;23.30;14.30;;;12.40;79.30;;;;;;5011200;28;20507;-79
2021/11/19 00:04:25;;;;;;;23.85;13.32;;;12.40;79.20;;;;;;5011266;28;20072;-79
2021/11/19 00:06:52;;;;;;;21.50;12.93;;;12.30;79.30;;;;;;5011811;28;20049;-80
2021/11/19 00:09:18;;;;;;;24.23;12.77;;;12.40;79.60;;;;;;5011774;28;20483;-79
2021/11/19 00:11:46;;;;;;;18.05;11.10;;;12.40;79.60;;;;;;5013699;28;20026;-78
2021/11/19 00:14:12;;;;;;;22.25;11.27;;;12.40;79.60;;;;;;4994845;28;20061;-79
2021/11/19 00:16:42;;;;;;;22.08;11.52;;;12.30;79.40;;;;;;4993360;28;20040;-78
2021/11/19 00:19:08;;;;;;;23.80;12.77;;;12.30;79.60;;;;;;5011231;28;20076;-79
2021/11/19 00:21:36;;;;;;;22.30;12.10;;;12.30;79.70;;;;;;5011153;28;20112;-80
2021/11/19 00:24:03;;;;;;;22.38;11.27;;;12.40;79.40;;;;;;4978675;28;20092;-79
2021/11/19 00:26:29;;;;;;;20.42;11.32;;;12.30;79.50;;;;;;5010402;28;20475;-80
2021/11/19 00:28:55;;;;;;;20.83;11.85;;;12.30;79.80;;;;;;5011279;28;20033;-80
2021/11/19 00:31:24;;;;;;;20.60;12.23;;;12.40;79.80;;;;;;5010813;28;20041;-78
2021/11/19 00:33:50;;;;;;;20.17;11.40;;;12.40;79.90;;;;;;5010792;28;20030;-78
2021/11/19 00:36:19;;;;;;;20.35;11.40;;;12.40;79.90;;;;;;5010898;28;20038;-81
2021/11/19 00:38:47;;;;;;;21.40;11.43;;;12.40;79.70;;;;;;5012908;28;20033;-80
2021/11/19 00:41:13;;;;;;;17.98;10.68;;;12.30;79.80;;;;;;5012326;28;20034;-79
2021/11/19 00:43:40;;;;;;;19.35;11.02;;;12.30;79.60;;;;;;5010737;28;20030;-80
2021/11/19 00:46:08;;;;;;;23.15;10.93;;;12.30;79.80;;;;;;5010468;28;20036;-80
2021/11/19 00:48:35;;;;;;;22.33;11.68;;;12.30;79.60;;;;;;4992820;28;20469;-80
2021/11/19 00:51:13;;;;;;;20.05;11.63;;;12.30;79.40;;;;;;4995597;28;20029;-79
2021/11/19 00:53:42;;;;;;;21.42;11.82;;;12.20;79.40;;;;;;5010246;28;20044;-80
2021/11/19 00:56:11;;;;;;;19.30;11.88;;;12.20;79.20;;;;;;5013574;28;20072;-80
2021/11/19 00:58:37;;;;;;;17.85;10.43;;;12.20;78.90;;;;;;5010796;28;20030;-79
2021/11/19 01:01:17;;;;;;;18.50;10.65;;;12.10;78.70;;;;;;5013303;28;20109;-79
2021/11/19 01:03:43;;;;;;;24.45;11.65;;;12.10;78.80;;;;;;5010388;28;20506;-79
2021/11/19 01:06:09;;;;;;;20.52;12.18;;;12.10;79.00;;;;;;5012174;28;20081;-79
2021/11/19 01:08:35;;;;;;;20.30;12.02;;;12.00;79.30;;;;;;5013439;28;20085;-78
2021/11/19 01:11:04;;;;;;;21.45;12.68;;;12.00;79.40;;;;;;5010099;28;20026;-78
2021/11/19 01:13:32;;;;;;;22.00;12.45;;;12.00;79.80;;;;;;5009328;28;20030;-79
2021/11/19 01:16:04;;;;;;;23.27;12.27;;;12.00;79.70;;;;;;4992196;28;20025;-79
2021/11/19 01:18:38;;;;;;;20.50;11.75;;;12.00;80.10;;;;;;4992790;28;20406;-81
2021/11/19 01:21:12;;;;;;;19.92;11.07;;;12.00;80.30;;;;;;4977309;28;20038;-79
2021/11/19 01:23:38;;;;;;;19.63;10.52;;;12.00;79.90;;;;;;5012743;28;20076;-80
2021/11/19 01:26:11;;;;;;;21.63;11.10;;;12.00;80.30;;;;;;5011134;28;20034;-80
2021/11/19 01:28:38;;;;;;;15.95;9.65;;;12.00;80.00;;;;;;4994196;28;20026;-79
2021/11/19 01:31:08;;;;;;;16.02;9.40;;;12.00;79.90;;;;;;5009711;28;20441;-79
2021/11/19 01:33:35;;;;;;;16.77;9.25;;;11.90;79.10;;;;;;5009869;28;20022;-80
2021/11/19 01:36:00;;;;;;;19.08;9.63;;;11.80;79.60;;;;;;4994991;28;20393;-80
2021/11/19 01:38:27;;;;;;;18.38;9.73;;;11.80;80.20;;;;;;5012585;28;20026;-80
2021/11/19 01:41:00;;;;;;;14.07;8.60;;;11.70;80.40;;;;;;5009510;28;20061;-81
2021/11/19 01:43:27;;;;;;;15.88;7.97;;;11.80;80.70;;;;;;4992149;28;20399;-80
2021/11/19 01:45:55;;;;;;;16.75;7.68;;;11.90;80.60;;;;;;5009377;28;20372;-80
2021/11/19 01:48:28;;;;;;;18.70;7.75;;;11.90;80.80;;;;;;5009893;28;20050;-82
2021/11/19 01:51:01;;;;;;;12.70;7.35;;;11.90;79.60;;;;;;5010720;28;20061;-83
2021/11/19 01:53:38;;;;;;;11.82;7.30;;;11.90;80.30;;;;;;5013255;28;20088;-81
2021/11/19 01:56:11;;;;;;;14.88;7.60;;;11.90;80.50;;;;;;5010440;28;20045;-81
2021/11/19 01:58:47;;;;;;;12.80;7.03;;;12.00;79.80;;;;;;5008961;28;20034;-81
2021/11/19 02:01:23;;;;;;;13.15;6.95;;;11.90;79.70;;;;;;5012625;28;20034;-81
2021/11/19 02:03:54;;;;;;;17.00;6.40;;;11.90;80.10;;;;;;5010610;28;20029;-81
2021/11/19 02:06:39;;;;;;;11.38;6.55;;;11.90;80.10;;;;;;5010916;28;20084;-82
2021/11/19 02:09:08;;;;;;;12.40;6.10;;;11.90;80.30;;;;;;4994301;28;20105;-81
2021/11/19 02:12:04;;;;;;;13.63;6.20;;;11.90;79.80;;;;;;5012569;28;20033;-81
2021/11/19 02:14:42;;;;;;;10.52;6.10;;;12.00;80.40;;;;;;4994587;28;20121;-79
2021/11/19 02:17:09;;;;;;;11.50;6.30;;;11.90;79.40;;;;;;5012147;28;20036;-83
2021/11/19 02:19:46;;;;;;;12.25;5.15;;;11.90;80.30;;;;;;5009163;28;20037;-83
2021/11/19 02:22:20;;;;;;;16.60;5.88;;;12.00;80.00;;;;;;4992433;28;20029;-81
2021/11/19 02:25:04;;;;;;;10.90;5.90;;;11.90;78.80;;;;;;5008693;28;20028;-81
2021/11/19 02:27:40;;;;;;;13.30;5.70;;;11.80;79.80;;;;;;4990945;28;20116;-80
2021/11/19 02:30:16;;;;;;;11.07;5.53;;;11.80;80.50;;;;;;4994297;28;20479;-80
2021/11/19 02:32:45;;;;;;;11.70;5.15;;;11.70;79.60;;;;;;4994104;28;20367;-80
2021/11/19 02:35:31;;;;;;;11.27;5.75;;;11.70;79.70;;;;;;5010367;28;20113;-79
2021/11/19 02:38:10;;;;;;;9.25;4.90;;;11.70;79.40;;;;;;5008771;28;20108;-79
2021/11/19 02:40:39;;;;;;;11.77;5.65;;;11.70;80.30;;;;;;5008614;28;20096;-80
2021/11/19 02:43:10;;;;;;;12.93;5.32;;;11.70;79.70;;;;;;5008480;28;20030;-80
2021/11/19 02:45:44;;;;;;;11.52;5.10;;;11.70;79.60;;;;;;4991336;28;20033;-81
2021/11/19 02:48:13;;;;;;;14.63;5.13;;;11.50;79.50;;;;;;4991711;28;20033;-81
2021/11/19 02:50:39;;;;;;;10.82;5.13;;;11.50;80.20;;;;;;5011649;28;20068;-80
2021/11/19 02:53:06;;;;;;;12.95;5.28;;;11.50;80.20;;;;;;5011253;28;20491;-80
2021/11/19 02:55:37;;;;;;;10.95;5.15;;;11.50;80.00;;;;;;5008721;28;20034;-80
2021/11/19 02:58:05;;;;;;;10.70;4.63;;;11.50;80.30;;;;;;5008382;28;20026;-81
2021/11/19 03:00:44;;;;;;;10.07;5.03;;;11.50;80.50;;;;;;5011374;28;20106;-80
2021/11/19 03:03:10;;;;;;;9.65;4.97;;;11.50;80.00;;;;;;4977526;28;20080;-81
2021/11/19 03:05:36;;;;;;;10.57;4.88;;;11.40;79.90;;;;;;4993860;28;20054;-82
2021/11/19 03:08:01;;;;;;;12.65;5.43;;;11.40;80.00;;;;;;5009502;28;20044;-82
2021/11/19 03:10:40;;;;;;;14.43;5.28;;;11.30;79.90;;;;;;5008707;28;20048;-82
2021/11/19 03:13:07;;;;;;;12.55;4.72;;;11.20;80.10;;;;;;5011227;28;20034;-80
2021/11/19 03:15:36;;;;;;;9.90;4.40;;;11.20;80.60;;;;;;4993752;28;20028;-80
2021/11/19 03:18:04;;;;;;;10.52;4.97;;;11.20;80.70;;;;;;4993603;28;20036;-83
2021/11/19 03:20:30;;;;;;;10.88;4.82;;;11.10;81.30;;;;;;5008004;28;20030;-83
2021/11/19 03:22:56;;;;;;;10.70;4.30;;;11.20;81.00;;;;;;5008943;28;20085;-83
2021/11/19 03:25:27;;;;;;;12.43;4.97;;;11.10;81.10;;;;;;5008351;28;20086;-83
2021/11/19 03:27:54;;;;;;;14.38;5.18;;;11.10;80.90;;;;;;5008253;28;20018;-81
2021/11/19 03:30:22;;;;;;;11.75;4.70;;;11.10;81.00;;;;;;4990952;28;20026;-80
2021/11/19 03:32:48;;;;;;;11.48;4.90;;;11.10;80.90;;;;;;5010623;28;20022;-80
2021/11/19 03:35:17;;;;;;;12.35;5.32;;;11.10;81.30;;;;;;4989001;28;20033;-80
2021/11/19 03:37:49;;;;;;;11.07;5.15;;;10.90;81.00;;;;;;5008205;28;20065;-79
2021/11/19 03:40:34;;;;;;;11.15;4.85;;;10.90;81.60;;;;;;5011656;28;20030;-80
2021/11/19 03:43:00;;;;;;;7.35;4.40;;;10.90;81.90;;;;;;5011969;28;20052;-81
2021/11/19 03:45:31;;;;;;;9.30;4.63;;;11.00;81.90;;;;;;4994885;28;20049;-81
2021/11/19 03:47:57;;;;;;;11.20;5.18;;;11.00;81.70;;;;;;5012462;28;20030;-80
2021/11/19 03:50:31;;;;;;;11.60;5.43;;;11.00;81.70;;;;;;5013892;28;20028;-80
2021/11/19 03:52:56;;;;;;;7.38;4.70;;;10.90;81.20;;;;;;5011876;28;20495;-81
2021/11/19 03:55:26;;;;;;;11.13;5.18;;;10.90;81.70;;;;;;4993989;28;20030;-80
2021/11/19 03:57:53;;;;;;;10.65;4.82;;;10.80;82.80;;;;;;4995457;28;20056;-80
2021/11/19 04:00:32;;;;;;;9.68;4.57;;;10.90;81.90;;;;;;5013027;28;20045;-79
2021/11/19 04:02:59;;;;;;;11.65;5.18;;;10.80;81.60;;;;;;5013198;28;20018;-80
2021/11/19 04:05:27;;;;;;;10.45;5.25;;;10.90;81.70;;;;;;4996896;28;20065;-81
2021/11/19 04:07:53;;;;;;;8.80;4.63;;;10.80;81.50;;;;;;5011526;28;20062;-81
2021/11/19 04:10:20;;;;;;;10.82;4.97;;;10.80;81.30;;;;;;5011381;28;20050;-82
2021/11/19 04:12:46;;;;;;;9.35;4.53;;;10.70;81.50;;;;;;5011692;28;20032;-82
2021/11/19 04:15:24;;;;;;;9.88;5.15;;;10.70;81.30;;;;;;5011440;28;20410;-79
2021/11/19 04:17:50;;;;;;;9.70;4.90;;;10.60;82.40;;;;;;4995637;28;20414;-78
2021/11/19 04:20:17;;;;;;;13.52;5.30;;;10.60;81.50;;;;;;5013234;28;20037;-81
2021/11/19 04:22:42;;;;;;;13.23;4.82;;;10.50;81.60;;;;;;5011254;28;20029;-79
2021/11/19 04:25:10;;;;;;;11.80;5.22;;;10.50;81.80;;;;;;5011458;28;20037;-81
2021/11/19 04:27:38;;;;;;;9.13;4.65;;;10.50;81.40;;;;;;5007800;28;20053;-79
2021/11/19 04:30:07;;;;;;;13.52;5.20;;;10.40;81.80;;;;;;5013027;28;20025;-81
2021/11/19 04:32:32;;;;;;;10.32;4.57;;;10.50;81.90;;;;;;5016560;28;20536;-81
2021/11/19 04:34:58;;;;;;;11.07;4.75;;;10.50;81.80;;;;;;4996895;28;20033;-81
2021/11/19 04:37:25;;;;;;;11.07;4.63;;;10.40;81.30;;;;;;5011178;28;20406;-82
2021/11/19 04:39:51;;;;;;;8.57;4.25;;;10.40;81.80;;;;;;4993705;28;20087;-81
2021/11/19 04:42:17;;;;;;;9.45;4.60;;;10.40;81.20;;;;;;5011712;28;20038;-82
2021/11/19 04:44:44;;;;;;;9.35;4.68;;;10.30;80.90;;;;;;5013500;28;20380;-82
2021/11/19 04:47:10;;;;;;;10.40;5.00;;;10.30;81.40;;;;;;5012356;28;20026;-81
2021/11/19 04:49:35;;;;;;;8.93;4.88;;;10.10;81.50;;;;;;4994718;28;20030;-82
2021/11/19 04:52:04;;;;;;;11.18;5.50;;;10.10;81.90;;;;;;4986248;28;20030;-81
2021/11/19 04:54:29;;;;;;;9.95;5.13;;;10.10;81.80;;;;;;4993668;28;20030;-79
2021/11/19 04:56:56;;;;;;;12.02;5.70;;;10.00;81.80;;;;;;5012454;28;20026;-80
2021/11/19 04:59:23;;;;;;;10.20;4.90;;;10.00;82.40;;;;;;4995514;28;20449;-80
2021/11/19 05:02:03;;;;;;;10.07;4.90;;;9.90;82.10;;;;;;5011183;28;20033;-79
2021/11/19 05:04:29;;;;;;;9.00;4.75;;;10.00;82.30;;;;;;5010226;28;20414;-78
2021/11/19 05:06:55;;;;;;;10.02;4.60;;;10.00;82.30;;;;;;5010931;28;20065;-80
2021/11/19 05:09:21;;;;;;;9.68;4.18;;;10.10;82.10;;;;;;5010781;28;20026;-81
2021/11/19 05:11:57;;;;;;;10.32;4.68;;;10.10;82.10;;;;;;5011543;28;20025;-80
2021/11/19 05:14:24;;;;;;;8.05;4.82;;;10.00;81.60;;;;;;5012384;28;20486;-81
2021/11/19 05:16:49;;;;;;;9.95;4.75;;;10.00;81.90;;;;;;4995832;28;20076;-80
2021/11/19 05:19:16;;;;;;;9.93;4.93;;;9.90;81.70;;;;;;4994933;28;20022;-81
2021/11/19 05:21:42;;;;;;;12.73;4.60;;;9.90;81.90;;;;;;5009569;28;20037;-79
2021/11/19 05:24:09;;;;;;;8.15;4.80;;;10.00;82.20;;;;;;5009666;28;20030;-80
2021/11/19 05:26:42;;;;;;;8.43;4.63;;;10.00;82.30;;;;;;5012608;28;20030;-80
2021/11/19 05:29:08;;;;;;;9.43;4.85;;;10.00;81.90;;;;;;5012259;28;20018;-80
2021/11/19 05:31:36;;;;;;;9.80;4.80;;;10.00;81.50;;;;;;4992267;28;20033;-80
2021/11/19 05:34:02;;;;;;;9.68;4.70;;;10.00;81.70;;;;;;5009761;28;20149;-80
2021/11/19 05:36:28;;;;;;;9.98;4.60;;;10.00;81.60;;;;;;5009106;28;20018;-80
2021/11/19 05:38:54;;;;;;;10.93;5.03;;;10.00;81.90;;;;;;4993309;28;20034;-80
2021/11/19 05:41:22;;;;;;;7.85;4.25;;;9.90;81.20;;;;;;4994808;28;20048;-79
2021/11/19 05:43:50;;;;;;;9.63;4.70;;;9.90;81.50;;;;;;5006578;28;20494;-80
2021/11/19 05:46:18;;;;;;;9.45;4.50;;;9.80;81.30;;;;;;5008109;28;20041;-79
2021/11/19 05:48:45;;;;;;;7.30;4.32;;;9.80;81.20;;;;;;5005135;28;20402;-79
2021/11/19 05:51:12;;;;;;;12.68;5.30;;;9.80;81.30;;;;;;5008889;28;20041;-80
2021/11/19 05:53:38;;;;;;;11.93;4.88;;;9.80;81.50;;;;;;5011719;28;20058;-80
2021/11/19 05:56:04;;;;;;;10.45;4.50;;;9.70;81.80;;;;;;5011305;28;20061;-79
2021/11/19 05:58:30;;;;;;;7.32;4.45;;;9.70;81.40;;;;;;5009068;28;20501;-78
2021/11/19 06:01:03;;;;;;;7.03;3.92;;;9.70;82.00;;;;;;5015505;28;20497;-79
2021/11/19 06:03:29;;;;;;;6.72;4.43;;;9.70;81.70;;;;;;5015024;28;20029;-80
2021/11/19 06:05:55;;;;;;;7.40;4.38;;;9.60;81.30;;;;;;4993016;28;20061;-80
2021/11/19 06:08:21;;;;;;;9.02;4.28;;;9.60;81.40;;;;;;5013360;28;20033;-79
2021/11/19 06:10:51;;;;;;;7.70;4.07;;;9.60;81.50;;;;;;4994595;28;20391;-80
2021/11/19 06:13:20;;;;;;;11.55;4.22;;;9.60;81.50;;;;;;5010716;28;20029;-78
2021/11/19 06:15:53;;;;;;;8.10;4.15;;;9.60;81.30;;;;;;5008777;28;20029;-78
2021/11/19 06:18:24;;;;;;;9.00;4.32;;;9.50;81.50;;;;;;5009106;28;20145;-79
2021/11/19 06:20:56;;;;;;;11.07;4.43;;;9.50;81.70;;;;;;5010363;28;20038;-80
2021/11/19 06:23:37;;;;;;;10.90;4.70;;;9.50;81.40;;;;;;5005800;28;20402;-79
2021/11/19 06:26:07;;;;;;;7.55;3.92;;;9.50;81.50;;;;;;5020678;28;20031;-77
2021/11/19 06:28:41;;;;;;;8.23;4.03;;;9.50;81.50;;;;;;5018694;28;20052;-79
2021/11/19 06:31:08;;;;;;;5.90;3.67;;;9.50;81.50;;;;;;5028597;28;20038;-83
2021/11/19 06:33:34;;;;;;;7.75;3.85;;;9.50;81.40;;;;;;5011451;28;20034;-88
2021/11/19 06:35:59;;;;;;;7.55;4.22;;;9.40;81.20;;;;;;5009143;28;20042;-86
2021/11/19 06:38:25;;;;;;;8.30;3.67;;;9.40;81.50;;;;;;5013027;28;20052;-85
2021/11/19 06:40:51;;;;;;;6.13;3.85;;;9.40;81.40;;;;;;5012200;28;20042;-85
2021/11/19 06:43:17;;;;;;;7.05;3.88;;;9.30;81.20;;;;;;5008470;28;20117;-64
2021/11/19 06:45:43;;;;;;;9.13;3.72;;;9.30;81.90;;;;;;5008060;28;20112;-63
2021/11/19 06:48:09;;;;;;;7.38;4.25;;;9.40;81.90;;;;;;5010885;28;20026;-73
2021/11/19 06:50:37;;;;;;;8.88;4.70;;;9.40;81.20;;;;;;5010525;28;20454;-71
2021/11/19 06:53:04;;;;;;;11.45;5.30;;;9.30;81.00;;;;;;5008661;28;20558;-71
2021/11/19 06:55:30;;;;;;;9.30;5.13;;;9.30;81.00;;;;;;5008245;28;20112;-70
2021/11/19 06:57:56;;;;;;;9.30;5.07;;;9.30;81.30;;;;;;5007550;28;21748;-70
2021/11/19 07:00:29;;;;;;;10.73;5.65;;;9.30;81.70;;;;;;5009394;28;20511;-71
2021/11/19 07:02:56;;;;;;;9.73;5.35;;;9.30;81.10;;;;;;5009859;28;20042;-71
2021/11/19 07:05:23;;;;;;;8.90;4.78;;;9.20;81.30;;;;;;5009894;28;20061;-71
2021/11/19 07:07:49;;;;;;;10.13;5.60;;;9.30;81.70;;;;;;4990947;28;20033;-70
2021/11/19 07:10:17;;;;;;;9.73;4.80;;;9.30;82.00;;;;;;5008171;28;20088;-70
2021/11/19 07:12:43;;;;;;;11.75;5.22;;;9.30;81.70;;;;;;5007285;28;20108;-70
2021/11/19 07:15:11;;;;;;;11.45;5.32;;;9.30;81.30;;;;;;4994251;28;20113;-71
2021/11/19 07:17:37;;;;;;;11.60;5.13;;;9.20;81.10;;;;;;5014769;28;20034;-71
2021/11/19 07:20:06;;;;;;;9.82;5.20;;;9.20;81.60;;;;;;5010916;28;20395;-71
2021/11/19 07:22:32;;;;;;;9.98;5.40;;;9.10;81.40;;;;;;5003111;28;20023;-70
2021/11/19 07:24:58;;;;;;;10.98;6.15;;;9.10;81.60;;;;;;5003594;28;20451;-71
2021/11/19 07:27:24;;;;;;;9.85;6.00;;;9.10;81.80;;;;;;5011138;28;20176;-70
2021/11/19 07:29:50;;;;;;;9.02;5.85;;;9.10;82.00;;;;;;5012865;28;20407;-71
2021/11/19 07:32:16;;;;;;;10.63;5.53;;;9.10;81.60;;;;;;5012338;28;20470;-71
2021/11/19 07:34:41;;;;;;;12.05;5.80;;;9.10;81.60;;;;;;5010702;28;20018;-70
2021/11/19 07:37:08;;;;;;;8.00;5.25;;;9.20;81.80;;;;;;5011180;28;20045;-71
2021/11/19 07:39:37;;;;;;;9.93;5.50;;;9.20;81.40;;;;;;5011157;28;20034;-72
2021/11/19 07:42:03;;;;;;;10.85;5.88;;;9.20;81.60;;;;;;5023831;28;20038;-71
2021/11/19 07:44:29;;;;;;;8.30;5.13;;;9.20;81.80;;;;;;5016856;28;20453;-71
2021/11/19 07:46:54;;;;;;;8.00;5.55;;;9.30;81.80;;;;;;5017453;28;20029;-72
2021/11/19 07:49:20;;;;;;;9.98;5.68;;;9.30;81.40;;;;;;5004694;28;20022;-71
2021/11/19 07:51:50;;;;;;;9.00;5.28;;;9.40;81.20;;;;;;5013947;28;20060;-72
2021/11/19 07:54:17;;;;;;;7.80;5.18;;;9.50;81.70;;;;;;5022775;28;20053;-71
2021/11/19 07:56:44;;;;;;;10.10;6.95;;;9.60;81.60;;;;;;5019079;28;20024;-71
2021/11/19 07:59:25;;;;;;;12.25;7.13;;;9.80;81.50;;;;;;5020085;28;20111;-72
2021/11/19 08:01:53;;;;;;;10.20;6.55;;;9.90;81.10;;;;;;5010621;28;20048;-71
2021/11/19 08:04:20;;;;;;;9.75;5.88;;;10.00;81.20;;;;;;5016489;28;20803;-71
2021/11/19 08:06:46;;;;;;;10.50;6.28;;;10.10;80.40;;;;;;5024149;28;20061;-71
2021/11/19 08:09:12;;;;;;;9.82;6.43;;;10.20;80.10;;;;;;5014240;28;20029;-72
2021/11/19 08:11:38;;;;;;;11.77;6.60;;;10.30;79.80;;;;;;5024555;28;20409;-70
2021/11/19 08:14:05;;;;;;;14.23;7.15;;;10.40;79.70;;;;;;5013770;28;20034;-71
2021/11/19 08:16:45;;;;;;;12.43;7.07;;;10.60;79.80;;;;;;5014265;28;20108;-71
2021/11/19 08:19:27;;;;;;;11.38;6.38;;;10.70;79.50;;;;;;4994100;28;20173;-71
2021/11/19 08:21:57;;;;;;;8.93;6.30;;;11.00;79.60;;;;;;5012336;28;20395;-70
2021/11/19 08:24:24;;;;;;;10.05;6.25;;;11.10;78.70;;;;;;5014577;28;20072;-70
2021/11/19 08:26:53;;;;;;;9.38;5.80;;;11.20;78.50;;;;;;4997460;28;20637;-71
2021/11/19 08:29:22;;;;;;;9.52;6.10;;;11.30;78.00;;;;;;5022630;28;20030;-71
2021/11/19 08:31:48;;;;;;;11.85;6.22;;;11.50;77.70;;;;;;5015338;28;20026;-70
2021/11/19 08:34:15;;;;;;;11.25;5.88;;;11.60;76.80;;;;;;5013542;28;20101;-70
2021/11/19 08:36:41;;;;;;;10.48;5.80;;;11.70;77.70;;;;;;5023528;28;20034;-69
2021/11/19 08:39:10;;;;;;;9.65;6.00;;;11.90;76.90;;;;;;5011597;28;20033;-70
2021/11/19 08:41:37;;;;;;;9.23;5.80;;;12.10;76.50;;;;;;5013287;28;20120;-70
2021/11/19 08:44:06;;;;;;;12.48;5.60;;;12.30;76.40;;;;;;5011759;28;20030;-70
2021/11/19 08:46:36;;;;;;;8.40;4.70;;;12.50;76.20;;;;;;4998583;28;20413;-71
2021/11/19 08:49:05;;;;;;;8.80;4.97;;;12.70;75.40;;;;;;5021889;28;20080;-70
2021/11/19 08:51:32;;;;;;;10.43;5.60;;;12.90;74.90;;;;;;5013393;28;20117;-70
2021/11/19 08:54:02;;;;;;;11.52;4.32;;;13.10;74.90;;;;;;5022527;28;20026;-71
2021/11/19 08:56:30;;;;;;;8.52;5.40;;;13.10;73.50;;;;;;5002121;28;20022;-70
2021/11/19 08:58:56;;;;;;;9.82;5.35;;;13.30;73.70;;;;;;5024014;28;20358;-70
2021/11/19 09:01:23;;;;;;;8.50;4.13;;;13.60;73.80;;;;;;5016946;28;20134;-72
2021/11/19 09:03:49;;;;;;;9.95;4.30;;;13.80;72.10;;;;;;5019453;28;20101;-70
2021/11/19 09:06:18;;;;;;;8.32;3.85;;;13.70;72.00;;;;;;5005085;28;20046;-70
2021/11/19 09:08:44;;;;;;;7.65;3.97;;;13.90;72.20;;;;;;5017882;28;20010;-70
2021/11/19 09:11:16;;;;;;;9.07;3.47;;;14.10;71.30;;;;;;5018952;28;20159;-71
2021/11/19 09:13:42;;;;;;;9.38;3.15;;;14.10;69.90;;;;;;5012960;28;20029;-71
2021/11/19 09:16:11;;;;;;;8.25;3.33;;;14.10;71.00;;;;;;4997764;28;20040;-70
2021/11/19 09:19:08;;;;;;;7.60;3.30;;;14.10;69.50;;;;;;5008550;28;20022;-72
2021/11/19 09:22:14;;;;;;;8.52;3.35;;;14.40;72.50;;;;;;5009793;28;20041;-71
2021/11/19 09:24:40;;;;;;;8.10;3.60;;;14.60;69.90;;;;;;4981933;28;20068;-72
2021/11/19 09:27:11;;;;;;;8.13;3.00;;;14.80;68.80;;;;;;5010323;28;20084;-72
2021/11/19 09:29:42;;;;;;;5.88;3.28;;;14.80;67.90;;;;;;5012821;28;20014;-72
2021/11/19 09:32:10;;;;;;;10.52;3.70;;;14.70;67.50;;;;;;5012790;28;20113;-71
2021/11/19 09:34:38;;;;;;;7.50;3.15;;;15.00;69.10;;;;;;5009373;28;20030;-70
2021/11/19 09:37:06;;;;;;;7.80;3.30;;;15.30;67.60;;;;;;5009762;28;20030;-71
2021/11/19 09:39:33;;;;;;;10.00;3.55;;;15.60;68.30;;;;;;5008751;28;20490;-71
2021/11/19 09:41:58;;;;;;;13.23;3.67;;;15.70;67.10;;;;;;5010206;28;20034;-71
2021/11/19 09:44:36;;;;;;;10.02;3.30;;;15.90;66.50;;;;;;5012540;28;20090;-71
2021/11/19 09:47:22;;;;;;;7.93;3.17;;;15.90;64.80;;;;;;5010693;28;20108;-71
2021/11/19 09:50:05;;;;;;;10.45;3.50;;;15.80;66.40;;;;;;5009902;28;20109;-72
2021/11/19 09:52:49;;;;;;;;;;;16.00;65.80;;;;;;5009901;28;20105;-71
2021/11/19 09:55:15;;;;;;;9.07;3.05;;;16.20;67.10;;;;;;5009734;28;19916;-71
2021/11/19 09:58:14;;;;;;;8.48;3.33;;;16.40;66.20;;;;;;5009292;28;20026;-71
2021/11/19 10:00:55;;;;;;;7.78;2.60;;;16.50;65.70;;;;;;4995623;28;20032;-72
2021/11/19 10:03:50;;;;;;;9.07;2.58;;;16.10;63.20;;;;;;4993692;28;20034;-72
2021/11/19 10:06:29;;;;;;;8.50;2.83;;;15.40;63.70;;;;;;4995742;28;20046;-72
2021/11/19 10:09:08;;;;;;;9.95;2.97;;;15.30;65.10;;;;;;4993086;28;20522;-71
2021/11/19 10:11:39;;;;;;;9.40;2.70;;;15.30;65.60;;;;;;5008793;28;20022;-71
2021/11/19 10:14:26;;;;;;;9.10;2.70;;;15.40;66.20;;;;;;5010233;28;20030;-70
2021/11/19 10:17:04;;;;;;;12.43;2.83;;;15.90;65.90;;;;;;5009218;28;20034;-71
2021/11/19 10:20:09;;;;;;;10.68;2.78;;;16.20;65.20;;;;;;5009080;28;20077;-71
2021/11/19 10:22:49;;;;;;;7.93;2.30;;;16.60;66.50;;;;;;5009014;28;20045;-71
2021/11/19 10:25:21;;;;;;;8.35;2.55;;;16.50;63.50;;;;;;4991850;28;20033;-72
2021/11/19 10:27:54;;;;;;;8.25;2.70;;;16.00;61.30;;;;;;5008975;28;20057;-71
2021/11/19 10:30:34;;;;;;;7.20;2.83;;;16.10;65.80;;;;;;4991928;28;20089;-72
2021/11/19 10:33:21;;;;;;;7.90;2.30;;;16.50;65.90;;;;;;5010623;28;20108;-72
2021/11/19 10:36:00;;;;;;;7.13;2.40;;;17.10;64.40;;;;;;5009652;28;20115;-72
2021/11/19 10:38:44;;;;;;;9.95;3.05;;;16.50;60.90;;;;;;5012104;28;20018;-71
2021/11/19 10:41:19;;;;;;;9.25;2.75;;;16.40;65.60;;;;;;5011562;28;20042;-72
2021/11/19 10:44:22;;;;;;;9.43;2.30;;;16.70;62.80;;;;;;5008603;28;20030;-71
2021/11/19 10:47:00;;;;;;;9.27;2.65;;;16.90;64.50;;;;;;5007930;28;20065;-72
2021/11/19 10:49:47;;;;;;;8.40;2.90;;;17.30;61.50;;;;;;5008564;28;20068;-72
2021/11/19 10:52:38;;;;;;;9.45;2.60;;;17.20;61.10;;;;;;5008583;28;20036;-71
2021/11/19 10:55:32;;;;;;;5.97;2.63;;;17.40;61.80;;;;;;4991034;28;20051;-71
2021/11/19 10:58:25;;;;;;;10.32;2.60;;;17.40;60.60;;;;;;5008630;28;20038;-71
2021/11/19 11:01:02;;;;;;;9.38;2.65;;;16.60;59.30;;;;;;5012344;28;20037;-72
2021/11/19 11:03:33;;;;;;;5.30;2.40;;;16.80;63.70;;;;;;5008734;28;20483;-72
2021/11/19 11:06:02;;;;;;;6.95;2.50;;;16.70;59.60;;;;;;5009467;28;20046;-72
2021/11/19 11:08:31;;;;;;;7.50;2.35;;;16.30;60.50;;;;;;5011920;28;20042;-72
2021/11/19 11:11:04;;;;;;;7.57;2.45;;;16.70;61.40;;;;;;5008194;28;20056;-72
2021/11/19 11:13:40;;;;;;;6.67;1.97;;;17.00;62.30;;;;;;5008732;28;20054;-72
2021/11/19 11:16:11;;;;;;;7.60;1.77;;;17.50;62.80;;;;;;5008282;28;20368;-61
2021/11/19 11:18:58;;;;;;;8.65;2.10;;;17.80;61.90;;;;;;5006328;28;20041;-61
2021/11/19 11:21:29;;;;;;;7.45;2.38;;;17.90;61.00;;;;;;5009881;28;20078;-62
2021/11/19 11:24:23;;;;;;;9.05;2.35;;;17.60;58.20;;;;;;5008165;28;20041;-62
2021/11/19 11:26:56;;;;;;;11.75;3.00;;;17.30;59.50;;;;;;4998058;28;20088;-62
2021/11/19 11:29:28;;;;;;;8.98;2.30;;;16.90;58.50;;;;;;5010138;28;20073;-63
2021/11/19 11:32:12;;;;;;;8.07;2.33;;;17.00;60.60;;;;;;4989834;28;20533;-62
2021/11/19 11:34:43;;;;;;;7.15;2.53;;;17.30;60.30;;;;;;5011345;28;20281;-62
2021/11/19 11:37:22;;;;;;;8.63;2.42;;;17.30;59.70;;;;;;5008378;28;20058;-71
2021/11/19 11:40:06;;;;;;;6.03;2.42;;;17.30;60.90;;;;;;5007253;28;20033;-71
2021/11/19 11:42:42;;;;;;;6.50;2.40;;;17.40;58.40;;;;;;4999868;28;20439;-71
2021/11/19 11:45:19;;;;;;;6.55;2.58;;;17.30;59.40;;;;;;5005981;28;20022;-71
2021/11/19 11:47:51;;;;;;;7.25;2.65;;;17.90;60.20;;;;;;5008303;28;20041;-71
2021/11/19 11:50:29;;;;;;;8.20;2.60;;;17.80;56.70;;;;;;4988112;28;20026;-71
2021/11/19 11:53:00;;;;;;;14.40;2.70;;;18.00;58.00;;;;;;4988742;28;20117;-71
2021/11/19 11:56:03;;;;;;;8.50;2.50;;;17.90;57.40;;;;;;5004895;28;20137;-71
2021/11/19 11:58:41;;;;;;;8.88;2.38;;;18.30;57.50;;;;;;5008357;28;20025;-71
2021/11/19 12:01:16;;;;;;;9.48;2.90;;;17.90;57.40;;;;;;5015967;28;20041;-73
2021/11/19 12:03:55;;;;;;;8.00;2.70;;;17.90;57.50;;;;;;5011748;28;20045;-72
2021/11/19 12:06:41;;;;;;;8.60;2.58;;;18.00;57.70;;;;;;5011325;28;20070;-71
2021/11/19 12:09:33;;;;;;;10.50;2.55;;;17.70;56.40;;;;;;5011424;28;20055;-70
2021/11/19 12:12:38;;;;;;;7.82;2.45;;;17.60;58.10;;;;;;4995169;28;20045;-71
2021/11/19 12:15:31;;;;;;;8.00;2.65;;;17.60;57.40;;;;;;4995401;28;20034;-72
2021/11/19 12:18:16;;;;;;;9.27;2.17;;;17.80;60.40;;;;;;5009300;28;20040;-72
2021/11/19 12:21:07;;;;;;;8.60;2.35;;;18.10;59.50;;;;;;4997972;28;20026;-71
2021/11/19 12:23:51;;;;;;;8.30;2.60;;;18.30;58.10;;;;;;4975297;28;20061;-73
2021/11/19 12:26:39;;;;;;;9.60;2.58;;;18.50;60.30;;;;;;5011062;28;20079;-72
2021/11/19 12:29:26;;;;;;;7.43;2.90;;;18.50;58.30;;;;;;5011311;28;20041;-72
2021/11/19 12:32:06;;;;;;;9.98;3.00;;;18.30;58.40;;;;;;5005056;28;20041;-72
2021/11/19 12:34:52;;;;;;;9.73;2.65;;;18.90;60.10;;;;;;5010492;28;20080;-73
2021/11/19 12:37:29;;;;;;;9.70;2.83;;;19.70;55.70;;;;;;5009962;28;20053;-72
2021/11/19 12:39:55;;;;;;;8.30;2.67;;;18.80;53.30;;;;;;5006424;28;20037;-72
2021/11/19 12:42:31;;;;;;;9.10;2.70;;;19.20;58.30;;;;;;5013701;28;20045;-72
2021/11/19 12:45:12;;;;;;;10.05;2.85;;;20.10;56.30;;;;;;5012925;28;20034;-73
2021/11/19 12:48:06;;;;;;;9.07;2.90;;;20.40;54.90;;;;;;4994570;28;20080;-73
2021/11/19 12:51:01;;;;;;;10.95;2.85;;;19.40;53.20;;;;;;5014886;28;20413;-72
2021/11/19 12:53:52;;;;;;;9.05;2.92;;;20.70;59.70;;;;;;5012520;28;20053;-73
2021/11/19 12:56:39;;;;;;;7.35;2.45;;;21.30;51.90;;;;;;5011408;28;20430;-73
2021/11/19 12:59:07;;;;;;;8.35;2.40;;;19.80;51.70;;;;;;5013369;28;20085;-73
2021/11/19 13:01:51;;;;;;;8.27;2.55;;;20.90;55.00;;;;;;5013166;28;20041;-73
2021/11/19 13:04:39;;;;;;;8.32;2.08;;;21.50;51.20;;;;;;5008108;28;20063;-72
2021/11/19 13:07:31;;;;;;;6.97;2.53;;;20.40;52.80;;;;;;5007807;28;20041;-74
2021/11/19 13:10:17;;;;;;;8.43;2.92;;;22.10;53.60;;;;;;5009436;28;20042;-72